Time;durP1;ratioP1;P1;durP2;ratioP2;P2;SDS_P1;SDS_P2;PMS_P1;PMS_P2;Temp;Humidity;BMP_temperature;BMP_pressure;BME280_temperature;BME280_humidity;BME280_pressure;Samples;Min_cycle;Max_cycle;Signal;HPM_P1;HPM_P2
2022/02/18 00:01:05;;;;;;;2.58;1.60;;;-3.90;99.90;;;;;;5032717;28;20044;-74
2022/02/18 00:03:32;;;;;;;1.52;1.40;;;-3.90;99.90;;;;;;5014825;28;20083;-73
2022/02/18 00:05:58;;;;;;;2.25;1.50;;;-3.90;99.90;;;;;;5032739;28;20021;-73
2022/02/18 00:08:25;;;;;;;2.75;1.67;;;-3.90;99.90;;;;;;5032436;28;20025;-73
2022/02/18 00:10:51;;;;;;;2.05;1.45;;;-3.90;99.90;;;;;;5032483;28;20017;-73
2022/02/18 00:13:18;;;;;;;2.28;1.42;;;-3.90;99.90;;;;;;5032360;28;20574;-73
2022/02/18 00:15:44;;;;;;;2.30;1.52;;;-3.80;99.90;;;;;;5032390;28;20029;-73
2022/02/18 00:18:10;;;;;;;1.92;1.45;;;-3.90;99.90;;;;;;5032412;28;20373;-73
2022/02/18 00:20:36;;;;;;;2.47;1.90;;;-3.90;99.90;;;;;;5032193;28;20075;-73
2022/02/18 00:23:04;;;;;;;3.55;1.58;;;-3.80;99.90;;;;;;5032265;28;20022;-73
2022/02/18 00:25:31;;;;;;;1.38;1.27;;;-3.80;99.90;;;;;;5032216;28;20022;-73
2022/02/18 00:28:00;;;;;;;2.30;1.92;;;-3.90;99.90;;;;;;5032232;28;20095;-73
2022/02/18 00:30:27;;;;;;;2.70;1.80;;;-3.90;99.90;;;;;;5032258;28;20034;-73
2022/02/18 00:32:52;;;;;;;2.55;1.75;;;-3.90;99.90;;;;;;5031901;28;20018;-73
2022/02/18 00:35:19;;;;;;;3.08;1.52;;;-3.90;99.90;;;;;;5032035;28;20036;-73
2022/02/18 00:37:52;;;;;;;1.67;1.58;;;-3.90;99.90;;;;;;5031653;28;20397;-73
2022/02/18 00:40:18;;;;;;;2.42;1.60;;;-3.90;99.90;;;;;;5032091;28;20068;-73
2022/02/18 00:42:44;;;;;;;4.80;1.73;;;-3.90;99.90;;;;;;5031929;28;20045;-73
2022/02/18 00:45:10;;;;;;;1.80;1.45;;;-3.90;99.90;;;;;;5014234;28;20545;-73
2022/02/18 00:47:36;;;;;;;2.30;1.83;;;-3.90;99.90;;;;;;5031833;28;20036;-73
2022/02/18 00:50:02;;;;;;;3.13;1.85;;;-3.90;99.90;;;;;;5032185;28;20064;-73
2022/02/18 00:52:28;;;;;;;1.75;1.63;;;-3.90;99.90;;;;;;5031614;28;20033;-72
2022/02/18 00:54:54;;;;;;;2.53;1.58;;;-3.90;99.90;;;;;;5031788;28;20037;-72
2022/02/18 00:57:19;;;;;;;1.40;1.30;;;-4.00;99.90;;;;;;5031982;28;20457;-71
2022/02/18 00:59:45;;;;;;;3.45;1.35;;;-3.90;99.90;;;;;;5032084;28;20026;-71
2022/02/18 01:02:11;;;;;;;2.30;1.60;;;-3.90;99.90;;;;;;5031900;28;20100;-71
2022/02/18 01:04:37;;;;;;;1.67;1.58;;;-3.90;99.90;;;;;;5031903;28;20021;-71
2022/02/18 01:07:04;;;;;;;2.28;1.88;;;-3.90;99.90;;;;;;5031856;28;20105;-71
2022/02/18 01:09:30;;;;;;;3.15;2.00;;;-3.90;99.90;;;;;;5032043;28;20030;-70
2022/02/18 01:11:56;;;;;;;2.28;1.50;;;-3.90;99.90;;;;;;5031757;28;20033;-70
2022/02/18 01:14:22;;;;;;;1.73;1.33;;;-3.90;99.90;;;;;;5031947;28;20038;-70
2022/02/18 01:16:48;;;;;;;2.33;1.60;;;-3.90;99.90;;;;;;5031694;28;20022;-70
2022/02/18 01:19:14;;;;;;;1.65;1.38;;;-3.90;99.90;;;;;;5032012;28;20033;-70
2022/02/18 01:21:39;;;;;;;2.00;1.52;;;-3.90;99.90;;;;;;5031882;28;20079;-71
2022/02/18 01:24:05;;;;;;;2.72;1.30;;;-3.90;99.90;;;;;;5031647;28;20053;-71
2022/02/18 01:26:32;;;;;;;2.58;1.45;;;-3.90;99.90;;;;;;5031933;28;20048;-72
2022/02/18 01:28:59;;;;;;;3.67;1.35;;;-4.00;99.90;;;;;;5031523;28;20049;-74
2022/02/18 01:31:25;;;;;;;1.58;1.25;;;-4.00;99.90;;;;;;5031657;28;20026;-74
2022/02/18 01:33:53;;;;;;;1.70;1.60;;;-4.00;99.90;;;;;;5031354;28;20384;-74
2022/02/18 01:36:19;;;;;;;1.90;1.30;;;-4.00;99.90;;;;;;5031581;28;20140;-74
2022/02/18 01:38:45;;;;;;;3.25;1.45;;;-3.90;99.90;;;;;;5031325;28;20413;-74
2022/02/18 01:41:12;;;;;;;1.75;1.40;;;-3.90;99.90;;;;;;5027602;28;20033;-73
2022/02/18 01:43:46;;;;;;;2.03;1.30;;;-3.90;99.90;;;;;;5014131;28;20456;-73
2022/02/18 01:46:12;;;;;;;3.58;1.70;;;-3.90;99.90;;;;;;5013901;28;20484;-73
2022/02/18 01:48:38;;;;;;;1.40;1.20;;;-3.90;99.90;;;;;;5015430;28;20030;-73
2022/02/18 01:51:03;;;;;;;1.70;1.45;;;-3.90;99.90;;;;;;5012277;28;20018;-73
2022/02/18 01:53:30;;;;;;;1.48;1.38;;;-3.90;99.90;;;;;;5011871;28;20497;-73
2022/02/18 01:55:56;;;;;;;1.38;1.27;;;-3.90;99.90;;;;;;4994103;28;20489;-73
2022/02/18 01:58:24;;;;;;;1.75;1.40;;;-3.90;99.90;;;;;;4994135;28;20054;-73
2022/02/18 02:00:52;;;;;;;1.17;1.10;;;-4.00;99.90;;;;;;4993987;28;20476;-73
2022/02/18 02:03:18;;;;;;;1.77;1.60;;;-4.00;99.90;;;;;;4995278;28;20073;-73
2022/02/18 02:05:45;;;;;;;2.30;1.50;;;-4.00;99.90;;;;;;5015065;28;20420;-73
2022/02/18 02:08:12;;;;;;;3.28;1.50;;;-4.00;99.90;;;;;;5015360;28;20144;-73
2022/02/18 02:10:42;;;;;;;1.30;1.20;;;-4.00;99.90;;;;;;5015114;28;20026;-74
2022/02/18 02:13:07;;;;;;;1.63;1.47;;;-4.00;99.90;;;;;;5014875;28;20033;-73
2022/02/18 02:15:34;;;;;;;1.75;1.33;;;-4.00;99.90;;;;;;5014995;28;20037;-73
2022/02/18 02:18:03;;;;;;;1.40;1.30;;;-3.90;99.90;;;;;;5015051;28;20034;-72
2022/02/18 02:20:29;;;;;;;2.28;1.55;;;-4.00;99.90;;;;;;5015174;28;20448;-71
2022/02/18 02:22:55;;;;;;;2.08;1.40;;;-4.00;99.90;;;;;;5014931;28;20049;-72
2022/02/18 02:56:52;;;;;;;2.97;1.70;;;-4.00;99.90;;;;;;5013731;28;20054;-72
2022/02/18 02:59:18;;;;;;;1.45;1.35;;;-4.00;99.90;;;;;;5014091;28;20105;-72
2022/02/18 03:01:45;;;;;;;3.05;1.48;;;-4.00;99.90;;;;;;5014048;28;20021;-72
2022/02/18 03:36:55;;;;;;;1.50;1.40;;;-4.00;99.90;;;;;;6073956;23;20205;31
2022/02/18 03:39:20;;;;;;;1.73;1.60;;;-4.00;99.90;;;;;;4931787;29;20042;-74
2022/02/18 03:41:46;;;;;;;2.75;1.63;;;-4.00;99.90;;;;;;4935892;29;20102;-75
2022/02/18 03:44:12;;;;;;;2.22;1.75;;;-4.00;99.90;;;;;;4935728;29;20038;-75
2022/02/18 03:46:37;;;;;;;2.97;1.65;;;-4.00;99.90;;;;;;4935893;29;20019;-75
2022/02/18 03:49:03;;;;;;;2.08;1.40;;;-4.00;99.90;;;;;;4950683;29;20034;-74
2022/02/18 03:51:29;;;;;;;1.83;1.65;;;-4.00;99.90;;;;;;4935878;28;20431;-75
2022/02/18 03:53:56;;;;;;;1.95;1.75;;;-4.00;99.90;;;;;;4950187;29;20050;-75
2022/02/18 03:56:22;;;;;;;1.88;1.73;;;-4.00;99.90;;;;;;4935621;29;20088;-75
2022/02/18 03:58:48;;;;;;;2.03;1.52;;;-4.00;99.90;;;;;;4935578;29;20441;-76
2022/02/18 04:01:13;;;;;;;1.58;1.42;;;-3.90;99.90;;;;;;4935457;29;20031;-75
2022/02/18 04:03:41;;;;;;;3.58;1.48;;;-4.00;99.90;;;;;;4934190;29;20058;-72
2022/02/18 04:06:07;;;;;;;2.88;1.67;;;-4.00;99.90;;;;;;4935623;28;20107;-72
2022/02/18 04:08:32;;;;;;;2.33;1.70;;;-4.00;99.90;;;;;;4935395;29;20379;-75
2022/02/18 04:10:58;;;;;;;1.70;1.60;;;-4.00;99.90;;;;;;4935411;29;20412;-75
2022/02/18 04:13:24;;;;;;;3.05;1.70;;;-4.00;99.90;;;;;;4935114;29;20107;-75
2022/02/18 04:15:50;;;;;;;2.13;1.70;;;-4.00;99.90;;;;;;4950024;28;20091;-74
2022/02/18 04:18:15;;;;;;;1.40;1.30;;;-4.00;99.90;;;;;;4935087;29;20071;-74
2022/02/18 04:20:41;;;;;;;2.65;1.35;;;-4.00;99.90;;;;;;4935276;29;20039;-74
2022/02/18 04:23:07;;;;;;;3.33;2.03;;;-4.00;99.90;;;;;;4935087;29;20515;-75
2022/02/18 04:25:33;;;;;;;2.90;2.17;;;-4.00;99.90;;;;;;4934638;29;20094;-75
2022/02/18 04:28:01;;;;;;;3.15;1.73;;;-4.00;99.90;;;;;;4935286;28;20051;-75
2022/02/18 04:30:29;;;;;;;2.55;1.73;;;-3.90;99.90;;;;;;4935005;29;20034;-75
2022/02/18 04:32:55;;;;;;;3.47;1.67;;;-3.90;99.90;;;;;;4935259;29;20028;-75
2022/02/18 04:35:21;;;;;;;4.13;1.55;;;-3.90;99.90;;;;;;4934911;29;20430;-75
2022/02/18 04:37:46;;;;;;;3.63;1.80;;;-3.90;99.90;;;;;;4934754;29;20115;-75
2022/02/18 04:40:14;;;;;;;2.95;1.63;;;-4.00;99.90;;;;;;4935019;29;20479;-75
2022/02/18 04:42:40;;;;;;;1.88;1.70;;;-4.00;99.90;;;;;;4935017;29;20055;-75
2022/02/18 04:45:06;;;;;;;3.58;1.80;;;-4.00;99.90;;;;;;4935004;29;20035;-75
2022/02/18 04:47:32;;;;;;;2.78;1.80;;;-4.00;99.90;;;;;;4934980;29;20043;-75
2022/02/18 04:49:58;;;;;;;1.73;1.60;;;-4.00;99.90;;;;;;4934886;29;20024;-75
2022/02/18 04:52:23;;;;;;;2.75;1.80;;;-4.00;99.90;;;;;;4934702;29;20388;-75
2022/02/18 04:54:49;;;;;;;2.42;1.58;;;-4.00;99.90;;;;;;4934718;29;20051;-73
2022/02/18 04:57:15;;;;;;;2.30;1.80;;;-4.00;99.90;;;;;;4934655;29;20020;-74
2022/02/18 04:59:40;;;;;;;1.70;1.60;;;-4.00;99.90;;;;;;4934770;29;20028;-73
2022/02/18 05:02:06;;;;;;;2.30;1.90;;;-4.00;99.90;;;;;;4934962;29;20055;-74
2022/02/18 05:04:32;;;;;;;2.05;1.85;;;-4.00;99.90;;;;;;4934564;29;20079;-74
2022/02/18 05:06:59;;;;;;;4.28;1.95;;;-4.00;99.90;;;;;;4934724;29;20028;-74
2022/02/18 05:09:25;;;;;;;1.90;1.60;;;-4.00;99.90;;;;;;4934508;29;20039;-73
2022/02/18 05:11:51;;;;;;;1.48;1.38;;;-4.00;99.90;;;;;;4933359;29;20066;-73
2022/02/18 05:14:17;;;;;;;1.48;1.38;;;-4.00;99.90;;;;;;4934336;29;20070;-72
2022/02/18 05:16:44;;;;;;;2.25;1.60;;;-4.00;99.90;;;;;;4934628;29;20035;-73
2022/02/18 05:19:09;;;;;;;5.78;1.63;;;-4.00;99.90;;;;;;4934475;29;20028;-74
2022/02/18 05:21:39;;;;;;;3.00;1.63;;;-4.00;99.90;;;;;;4933228;29;20098;-73
2022/02/18 05:24:06;;;;;;;2.50;1.67;;;-4.00;99.90;;;;;;4934523;29;20032;-73
2022/02/18 05:26:32;;;;;;;1.98;1.77;;;-4.00;99.90;;;;;;4934334;29;20054;-72
2022/02/18 05:28:58;;;;;;;2.25;1.73;;;-4.00;99.90;;;;;;4934334;29;20490;-73
2022/02/18 05:31:24;;;;;;;2.42;1.58;;;-4.00;99.90;;;;;;4934333;29;20036;-72
2022/02/18 05:33:50;;;;;;;1.58;1.38;;;-4.00;99.90;;;;;;4934229;29;20059;-69
2022/02/18 05:36:16;;;;;;;1.85;1.67;;;-4.00;99.90;;;;;;4934248;29;20082;-72
2022/02/18 05:38:43;;;;;;;2.58;1.80;;;-4.00;99.90;;;;;;4935877;29;20059;-68
2022/02/18 05:41:12;;;;;;;1.65;1.55;;;-3.90;99.90;;;;;;4930572;29;20427;-70
2022/02/18 05:43:38;;;;;;;1.75;1.60;;;-3.70;99.90;;;;;;4937607;29;20054;-72
2022/02/18 05:46:04;;;;;;;2.53;1.67;;;-3.80;99.90;;;;;;4931217;29;20071;-72
2022/02/18 05:48:31;;;;;;;2.47;1.88;;;-3.80;99.90;;;;;;4918456;29;20044;-74
2022/02/18 05:50:57;;;;;;;4.68;2.03;;;-3.80;99.90;;;;;;4920778;29;20031;-77
2022/02/18 05:53:23;;;;;;;2.40;1.60;;;-3.80;99.90;;;;;;4944984;29;20479;-73
2022/02/18 05:55:49;;;;;;;2.35;1.70;;;-3.80;99.90;;;;;;4934040;29;20035;-74
2022/02/18 05:58:14;;;;;;;2.03;1.77;;;-3.80;99.90;;;;;;4927837;29;20111;-75
2022/02/18 06:00:40;;;;;;;1.60;1.40;;;-3.80;99.90;;;;;;4933231;29;20059;-74
2022/02/18 06:03:06;;;;;;;1.77;1.60;;;-3.80;99.90;;;;;;4918628;29;20024;-72
2022/02/18 06:05:32;;;;;;;3.65;1.90;;;-3.80;99.90;;;;;;4921145;29;20432;-73
2022/02/18 06:07:57;;;;;;;2.95;1.85;;;-3.80;99.90;;;;;;4931181;29;20500;-73
2022/02/18 06:10:23;;;;;;;2.97;1.80;;;-3.80;99.90;;;;;;4920906;29;20030;-70
2022/02/18 06:12:50;;;;;;;2.25;1.77;;;-3.80;99.90;;;;;;4928469;29;20028;-69
2022/02/18 06:15:16;;;;;;;1.63;1.30;;;-3.80;99.90;;;;;;4937244;29;20034;-70
2022/02/18 06:17:42;;;;;;;1.63;1.52;;;-3.80;99.90;;;;;;4936927;29;20016;-70
2022/02/18 06:20:09;;;;;;;1.63;1.52;;;-3.90;99.90;;;;;;4936430;29;20379;-73
2022/02/18 06:22:38;;;;;;;1.70;1.52;;;-3.90;99.90;;;;;;4936677;29;20110;-69
2022/02/18 06:25:05;;;;;;;2.05;1.70;;;-3.90;99.90;;;;;;4937224;29;20514;-68
2022/02/18 06:27:30;;;;;;;1.90;1.40;;;-3.90;99.90;;;;;;4937304;29;20039;-71
2022/02/18 06:29:56;;;;;;;1.40;1.30;;;-3.90;99.90;;;;;;4937162;29;20027;-70
2022/02/18 06:32:22;;;;;;;3.65;1.88;;;-3.90;99.90;;;;;;4935712;29;20023;-71
2022/02/18 06:34:48;;;;;;;1.58;1.48;;;-3.90;99.90;;;;;;4936818;29;20403;-68
2022/02/18 06:37:14;;;;;;;3.03;1.70;;;-3.90;99.90;;;;;;4936701;29;20048;-68
2022/02/18 06:39:40;;;;;;;1.55;1.42;;;-3.90;99.90;;;;;;4936933;29;20054;-65
2022/02/18 06:42:06;;;;;;;1.77;1.52;;;-3.90;99.90;;;;;;4936957;29;20075;-67
2022/02/18 06:44:32;;;;;;;2.08;1.42;;;-3.90;99.90;;;;;;4936753;29;20040;-66
2022/02/18 06:46:58;;;;;;;3.42;1.70;;;-3.90;99.90;;;;;;4936801;29;20038;-66
2022/02/18 06:49:24;;;;;;;3.58;1.48;;;-3.90;99.90;;;;;;4936170;29;20602;-66
2022/02/18 06:51:55;;;;;;;3.55;1.60;;;-3.90;99.90;;;;;;4920908;29;20040;-66
2022/02/18 06:54:28;;;;;;;3.92;1.40;;;-3.90;99.90;;;;;;4917244;29;20123;-67
2022/02/18 06:56:55;;;;;;;2.80;1.40;;;-3.90;99.90;;;;;;4917379;29;20129;-67
2022/02/18 06:59:21;;;;;;;2.75;1.50;;;-3.90;99.90;;;;;;4917560;29;20107;-67
2022/02/18 07:01:50;;;;;;;2.55;1.45;;;-3.90;99.90;;;;;;4917861;29;20091;-66
2022/02/18 07:04:16;;;;;;;2.28;1.58;;;-3.90;99.90;;;;;;4933227;29;20055;-67
2022/02/18 07:06:42;;;;;;;3.38;1.77;;;-3.40;99.90;;;;;;4936471;29;20059;-68
2022/02/18 07:09:12;;;;;;;3.75;1.55;;;-3.10;99.90;;;;;;4918428;29;20074;-68
2022/02/18 07:11:39;;;;;;;2.03;1.70;;;-3.30;99.90;;;;;;4916772;29;20036;-68
2022/02/18 07:14:06;;;;;;;2.50;1.73;;;-3.40;99.90;;;;;;4917036;29;20039;-68
2022/02/18 07:16:32;;;;;;;4.22;1.92;;;-3.20;99.90;;;;;;4917242;29;20110;-68
2022/02/18 07:18:59;;;;;;;2.88;1.83;;;-2.40;99.90;;;;;;4920246;29;20365;-67
2022/02/18 07:21:25;;;;;;;3.60;1.70;;;-2.10;99.90;;;;;;4929803;29;20023;-71
2022/02/18 07:23:51;;;;;;;2.92;1.90;;;-2.50;99.90;;;;;;4932322;29;20095;-67
2022/02/18 07:26:17;;;;;;;1.77;1.55;;;-2.80;99.90;;;;;;4921220;29;20031;-67
2022/02/18 07:28:43;;;;;;;2.60;1.42;;;-3.00;99.90;;;;;;4950167;28;20446;-67
2022/02/18 07:31:09;;;;;;;1.80;1.52;;;-3.20;99.90;;;;;;4929479;29;20027;-69
2022/02/18 07:33:34;;;;;;;2.83;1.45;;;-3.40;99.90;;;;;;4931173;29;20031;-69
2022/02/18 07:36:00;;;;;;;3.03;1.65;;;-3.50;99.90;;;;;;4917617;29;20036;-68
2022/02/18 07:38:26;;;;;;;3.90;1.80;;;-3.50;99.90;;;;;;4921940;29;20083;-68
2022/02/18 07:40:52;;;;;;;4.75;1.60;;;-3.50;99.90;;;;;;4934287;29;20028;-70
2022/02/18 07:43:17;;;;;;;2.15;1.60;;;-3.50;99.90;;;;;;4920982;29;20054;-71
2022/02/18 07:45:43;;;;;;;3.97;1.50;;;-3.60;99.90;;;;;;4932384;29;20024;-68
2022/02/18 07:48:09;;;;;;;2.83;1.40;;;-3.60;99.90;;;;;;4919063;29;20020;-69
2022/02/18 07:50:34;;;;;;;2.13;1.23;;;-3.60;99.90;;;;;;4928064;29;20031;-69
2022/02/18 07:53:00;;;;;;;2.05;1.48;;;-3.50;99.90;;;;;;4925085;29;20533;-69
2022/02/18 07:55:26;;;;;;;6.50;2.20;;;-3.50;99.90;;;;;;4919529;29;20043;-70
2022/02/18 07:57:53;;;;;;;3.00;1.50;;;-3.60;99.90;;;;;;4944292;29;20047;-69
2022/02/18 08:00:19;;;;;;;3.80;1.40;;;-3.60;99.90;;;;;;4948376;28;20038;-70
2022/02/18 08:02:46;;;;;;;1.45;1.35;;;-3.50;99.90;;;;;;4926795;29;20028;-70
2022/02/18 08:05:12;;;;;;;1.45;1.30;;;-3.50;99.90;;;;;;4927947;29;20419;-70
2022/02/18 08:07:38;;;;;;;1.40;1.23;;;-3.50;99.90;;;;;;4919733;29;20024;-70
2022/02/18 08:10:05;;;;;;;2.22;1.67;;;-3.50;99.90;;;;;;4931569;29;20476;-70
2022/02/18 08:12:31;;;;;;;1.58;1.48;;;-3.50;99.90;;;;;;4922241;29;20030;-70
2022/02/18 08:14:56;;;;;;;1.70;1.30;;;-3.50;99.90;;;;;;4925104;29;20032;-70
2022/02/18 08:17:22;;;;;;;2.03;1.20;;;-3.50;99.90;;;;;;4929021;29;20472;-70
2022/02/18 08:19:48;;;;;;;1.67;1.50;;;-3.50;99.90;;;;;;4929164;29;20070;-69
2022/02/18 08:22:17;;;;;;;3.20;1.50;;;-3.50;99.90;;;;;;4934807;29;20051;-71
2022/02/18 08:24:42;;;;;;;2.42;1.40;;;-3.50;99.90;;;;;;4925739;29;20028;-70
2022/02/18 08:27:08;;;;;;;1.65;1.40;;;-3.50;99.90;;;;;;4916054;29;20032;-71
2022/02/18 08:29:34;;;;;;;2.92;1.60;;;-3.50;99.90;;;;;;4915611;29;20032;-71
2022/02/18 08:32:00;;;;;;;3.92;1.52;;;-3.40;99.90;;;;;;4915102;29;20024;-70
2022/02/18 08:34:26;;;;;;;1.63;1.27;;;-3.40;99.90;;;;;;4915610;29;20677;-70
2022/02/18 08:36:51;;;;;;;1.42;1.33;;;-3.40;99.90;;;;;;4915211;29;20480;-71
2022/02/18 08:39:18;;;;;;;2.08;1.30;;;-3.40;99.90;;;;;;4916432;29;20031;-70
2022/02/18 08:41:44;;;;;;;1.42;1.33;;;-3.40;99.90;;;;;;4914389;29;20028;-70
2022/02/18 08:44:09;;;;;;;1.80;1.50;;;-3.30;99.90;;;;;;4915961;29;20107;-72
2022/02/18 08:46:36;;;;;;;1.25;1.15;;;-3.30;99.90;;;;;;4915916;29;20131;-67
2022/02/18 08:49:03;;;;;;;1.50;1.40;;;-3.30;99.90;;;;;;4915862;29;20533;-66
2022/02/18 08:51:30;;;;;;;2.88;1.45;;;-3.20;99.90;;;;;;4915871;29;20028;-67
2022/02/18 08:53:56;;;;;;;2.45;1.50;;;-3.20;99.90;;;;;;4915760;29;20024;-68
2022/02/18 08:56:22;;;;;;;1.70;1.35;;;-3.20;99.90;;;;;;4915380;29;20424;-68
2022/02/18 08:58:49;;;;;;;1.88;1.45;;;-3.20;99.90;;;;;;4915795;29;20535;-69
2022/02/18 09:01:14;;;;;;;1.40;1.30;;;-3.20;99.90;;;;;;4915063;29;20512;-71
2022/02/18 09:03:40;;;;;;;6.13;1.40;;;-2.00;99.90;;;;;;4929898;29;20059;-70
2022/02/18 09:06:06;;;;;;;2.13;1.63;;;-1.70;99.90;;;;;;4915590;29;20103;-70
2022/02/18 09:08:31;;;;;;;7.25;2.45;;;-1.80;99.90;;;;;;4915550;29;20043;-66
2022/02/18 09:10:57;;;;;;;8.20;2.65;;;-2.10;99.90;;;;;;4915350;29;20044;-69
2022/02/18 09:13:25;;;;;;;3.35;1.63;;;-2.40;99.90;;;;;;4918827;29;20046;-69
2022/02/18 09:15:51;;;;;;;2.15;1.55;;;-2.50;99.90;;;;;;4919516;29;20092;-68
2022/02/18 09:18:19;;;;;;;2.40;1.50;;;-2.60;99.90;;;;;;4919288;29;20059;-69
2022/02/18 09:20:47;;;;;;;3.28;1.13;;;-2.60;99.90;;;;;;4919512;29;20039;-69
2022/02/18 09:23:14;;;;;;;1.27;1.15;;;-2.70;99.90;;;;;;4919493;29;20024;-69
2022/02/18 09:25:40;;;;;;;1.48;1.38;;;-2.70;99.90;;;;;;4919103;29;20028;-69
2022/02/18 09:28:06;;;;;;;2.70;1.50;;;-2.70;99.90;;;;;;4919301;29;20036;-69
2022/02/18 09:30:40;;;;;;;1.42;1.33;;;-2.70;99.90;;;;;;4919306;29;20087;-66
2022/02/18 09:33:06;;;;;;;1.73;1.42;;;-2.80;99.90;;;;;;4919306;29;20411;-66
2022/02/18 09:35:32;;;;;;;2.53;1.30;;;-2.80;99.90;;;;;;4918948;29;20047;-66
2022/02/18 09:37:58;;;;;;;1.75;1.20;;;-2.70;99.90;;;;;;4918750;29;20052;-69
2022/02/18 09:40:23;;;;;;;2.72;1.70;;;-2.70;99.90;;;;;;4918805;29;20104;-67
2022/02/18 09:42:49;;;;;;;1.27;1.17;;;-2.70;99.90;;;;;;4917839;29;20028;-66
2022/02/18 09:45:17;;;;;;;1.50;1.05;;;-2.70;99.90;;;;;;4918992;29;20103;-66
2022/02/18 09:47:43;;;;;;;2.25;1.60;;;-2.70;99.90;;;;;;4918844;29;20027;-68
2022/02/18 09:50:10;;;;;;;1.55;1.40;;;-1.20;99.90;;;;;;4918791;29;20028;-66
2022/02/18 09:52:37;;;;;;;2.05;1.27;;;-0.30;99.90;;;;;;4918669;29;20024;-66
2022/02/18 09:55:04;;;;;;;1.63;1.13;;;-0.70;99.90;;;;;;4918759;29;20144;-66
2022/02/18 09:57:31;;;;;;;2.95;1.17;;;-1.00;99.90;;;;;;4918408;29;20035;-66
2022/02/18 09:59:56;;;;;;;1.83;1.00;;;-1.30;99.90;;;;;;4918490;29;20065;-66
2022/02/18 10:02:23;;;;;;;1.65;1.33;;;-1.50;99.90;;;;;;4918288;29;20060;-66
2022/02/18 10:04:49;;;;;;;2.25;1.42;;;-1.60;99.90;;;;;;4945841;29;20506;-66
2022/02/18 10:07:14;;;;;;;2.60;1.15;;;-1.20;99.90;;;;;;4937619;29;20024;-63
2022/02/18 10:09:41;;;;;;;1.10;1.00;;;1.60;99.90;;;;;;4929632;29;20042;-68
2022/02/18 10:12:09;;;;;;;2.45;0.90;;;1.80;99.90;;;;;;4923100;29;20472;-68
2022/02/18 10:14:59;;;;;;;1.40;1.00;;;0.90;99.90;;;;;;4920822;29;20043;-66
2022/02/18 10:17:43;;;;;;;2.45;1.30;;;0.20;99.90;;;;;;4926994;29;20020;-68
2022/02/18 10:20:23;;;;;;;4.18;1.00;;;-0.30;99.90;;;;;;4919527;29;20076;-65
2022/02/18 10:22:54;;;;;;;1.45;1.30;;;-0.50;99.90;;;;;;4920749;29;20144;-65
2022/02/18 10:25:29;;;;;;;2.90;1.40;;;-0.80;99.90;;;;;;4922284;29;20404;-66
2022/02/18 10:27:55;;;;;;;1.02;0.85;;;-1.00;99.90;;;;;;4917765;29;20031;-66
2022/02/18 10:30:22;;;;;;;1.77;1.30;;;-1.00;99.90;;;;;;4933358;29;20039;-66
2022/02/18 10:33:11;;;;;;;1.63;1.13;;;-1.00;99.90;;;;;;4933392;29;20515;-66
2022/02/18 10:35:38;;;;;;;1.65;1.02;;;-1.10;99.90;;;;;;4923260;29;20075;-67
2022/02/18 10:38:05;;;;;;;1.80;0.98;;;-1.20;99.90;;;;;;4917483;29;20523;-66
2022/02/18 10:40:31;;;;;;;4.18;1.25;;;-1.20;99.90;;;;;;4917495;29;20024;-67
2022/02/18 10:43:07;;;;;;;1.55;1.45;;;-1.20;99.90;;;;;;4918069;29;20028;-67
2022/02/18 10:45:33;;;;;;;1.70;1.10;;;-1.20;99.90;;;;;;4917542;29;20027;-67
2022/02/18 10:48:44;;;;;;;1.98;1.45;;;-1.20;99.90;;;;;;4918045;29;20028;-67
2022/02/18 10:51:14;;;;;;;2.88;1.35;;;-1.20;99.90;;;;;;4917903;29;20103;-67
2022/02/18 10:53:43;;;;;;;3.05;1.33;;;-1.20;99.90;;;;;;4917803;29;20176;-67
2022/02/18 10:56:14;;;;;;;2.55;1.10;;;-1.20;99.90;;;;;;4916424;29;20036;-67
2022/02/18 10:58:48;;;;;;;2.90;1.45;;;-1.20;99.90;;;;;;4917444;29;20032;-67
2022/02/18 11:01:16;;;;;;;3.95;1.20;;;-1.20;99.90;;;;;;4930493;29;20020;-67
2022/02/18 11:03:43;;;;;;;1.48;1.17;;;-1.20;99.90;;;;;;4936357;29;20611;-67
2022/02/18 11:06:13;;;;;;;1.67;1.15;;;-1.20;99.90;;;;;;4936463;29;20094;-67
2022/02/18 11:08:46;;;;;;;1.30;1.20;;;-1.20;99.90;;;;;;4936501;29;20054;-67
2022/02/18 11:11:12;;;;;;;2.00;1.23;;;-1.20;99.90;;;;;;4936355;29;20086;-67
2022/02/18 11:13:40;;;;;;;1.05;1.05;;;-1.20;99.90;;;;;;4936180;29;20031;-67
2022/02/18 11:16:09;;;;;;;1.20;1.10;;;-1.20;99.90;;;;;;4936361;29;20035;-67
2022/02/18 11:18:39;;;;;;;2.38;1.05;;;-1.20;99.90;;;;;;4930594;29;20035;-67
2022/02/18 11:21:06;;;;;;;2.33;1.30;;;-1.10;99.90;;;;;;4917294;29;20047;-67
2022/02/18 11:23:32;;;;;;;3.38;1.20;;;-1.10;99.90;;;;;;4917132;29;20036;-67
2022/02/18 11:26:00;;;;;;;1.63;1.20;;;-1.10;99.90;;;;;;4917073;29;20111;-67
2022/02/18 11:28:28;;;;;;;1.63;1.05;;;-1.10;99.90;;;;;;4920399;29;20019;-68
2022/02/18 11:30:57;;;;;;;2.08;1.20;;;-1.10;99.90;;;;;;4923515;29;20115;-67
2022/02/18 11:33:51;;;;;;;1.30;1.10;;;-1.10;99.90;;;;;;4916639;29;20498;-66
2022/02/18 11:36:25;;;;;;;2.38;1.10;;;-1.10;99.90;;;;;;4934022;29;20379;-68
2022/02/18 11:39:02;;;;;;;1.83;1.13;;;-1.10;99.90;;;;;;4933785;29;20048;-67
2022/02/18 11:42:16;;;;;;;2.28;1.00;;;-1.10;99.90;;;;;;4935027;29;20034;-67
2022/02/18 11:44:41;;;;;;;1.73;1.30;;;-1.00;99.90;;;;;;4913396;29;20119;-66
2022/02/18 11:47:14;;;;;;;2.05;1.27;;;-1.00;99.90;;;;;;4926621;29;20115;-71
2022/02/18 11:49:41;;;;;;;2.25;1.13;;;-1.00;99.90;;;;;;4918487;29;20020;-68
2022/02/18 11:52:09;;;;;;;2.47;1.00;;;-0.90;99.90;;;;;;4916173;29;20020;-64
2022/02/18 11:54:36;;;;;;;1.10;0.75;;;0.50;99.90;;;;;;4919970;29;20110;-69
2022/02/18 11:57:08;;;;;;;2.13;1.00;;;2.90;99.90;;;;;;4922313;29;20042;-68
2022/02/18 11:59:58;;;;;;;2.97;1.13;;;2.30;99.90;;;;;;4920910;29;20395;-69
2022/02/18 12:02:40;;;;;;;3.78;0.98;;;1.80;99.90;;;;;;4916657;29;20059;-70
2022/02/18 12:05:13;;;;;;;2.33;0.90;;;1.60;99.90;;;;;;4916329;29;20111;-70
2022/02/18 12:07:40;;;;;;;1.23;1.00;;;1.10;99.90;;;;;;4916308;29;20035;-70
2022/02/18 12:10:16;;;;;;;1.80;0.90;;;0.70;99.90;;;;;;4916469;29;20028;-71
2022/02/18 12:12:42;;;;;;;1.58;1.48;;;0.40;99.90;;;;;;4916358;29;20036;-70
2022/02/18 12:15:14;;;;;;;1.60;0.82;;;0.30;99.90;;;;;;4922631;29;20515;-69
2022/02/18 12:17:43;;;;;;;1.88;0.73;;;0.20;99.90;;;;;;4935286;29;20034;-69
2022/02/18 12:20:11;;;;;;;1.25;1.10;;;0.00;99.90;;;;;;4935207;29;20027;-69
2022/02/18 12:22:37;;;;;;;2.33;1.10;;;-0.10;99.90;;;;;;4935127;29;20027;-69
2022/02/18 12:25:08;;;;;;;2.30;0.95;;;-0.20;99.90;;;;;;4933969;29;20080;-69
2022/02/18 12:27:34;;;;;;;;;;;-0.20;99.90;;;;;;4934345;29;20024;-70
2022/02/18 12:30:23;;;;;;;1.30;0.90;;;0.30;99.90;;;;;;4935155;29;19907;-69
2022/02/18 12:32:49;;;;;;;87.55;32.20;;;0.20;99.90;;;;;;4934981;29;20592;-70
2022/02/18 12:35:18;;;;;;;94.00;34.38;;;0.00;99.90;;;;;;4932006;29;20052;-68
2022/02/18 12:37:44;;;;;;;8.25;3.55;;;-0.10;99.90;;;;;;4934553;29;20050;-69
2022/02/18 12:40:19;;;;;;;4.95;2.67;;;-0.30;99.90;;;;;;4934671;29;20032;-68
2022/02/18 12:42:46;;;;;;;5.80;4.13;;;-0.30;99.90;;;;;;4934653;29;20027;-71
2022/02/18 12:45:12;;;;;;;2.75;1.85;;;-0.40;99.90;;;;;;4935052;29;20372;-68
2022/02/18 12:47:40;;;;;;;2.35;2.00;;;-0.40;99.90;;;;;;4934615;29;20035;-68
2022/02/18 12:50:11;;;;;;;1.55;1.45;;;-0.50;99.90;;;;;;4934828;29;20027;-70
2022/02/18 12:52:40;;;;;;;1.17;1.17;;;-0.50;99.90;;;;;;4934620;29;20035;-68
2022/02/18 12:55:09;;;;;;;1.95;1.17;;;-0.50;99.90;;;;;;4934774;29;20035;-68
2022/02/18 12:57:41;;;;;;;1.95;1.50;;;-0.50;99.90;;;;;;4934815;29;20027;-66
2022/02/18 13:00:13;;;;;;;1.33;1.20;;;-0.50;99.90;;;;;;4934725;29;20451;-64
2022/02/18 13:02:47;;;;;;;1.25;1.13;;;-0.50;99.90;;;;;;4934560;29;20031;-68
2022/02/18 13:05:26;;;;;;;3.08;1.17;;;-0.50;99.90;;;;;;4934726;29;20042;-69
2022/02/18 13:07:58;;;;;;;2.05;1.10;;;-0.50;99.90;;;;;;4934473;29;20157;-69
2022/02/18 13:10:32;;;;;;;4.70;1.02;;;-0.50;99.90;;;;;;4922772;29;20027;-70
2022/02/18 13:12:59;;;;;;;1.23;0.90;;;-0.50;99.90;;;;;;4915774;29;20047;-69
2022/02/18 13:15:27;;;;;;;1.98;1.08;;;-0.50;99.90;;;;;;4915533;29;20074;-69
2022/02/18 13:17:57;;;;;;;3.00;0.93;;;-0.50;99.90;;;;;;4915536;29;20027;-69
2022/02/18 13:20:29;;;;;;;2.40;1.10;;;-0.50;99.90;;;;;;4915745;29;20507;-69
2022/02/18 13:23:18;;;;;;;3.88;0.90;;;-0.50;99.90;;;;;;4915492;29;20491;-69
2022/02/18 13:25:44;;;;;;;1.35;0.90;;;-0.60;99.90;;;;;;4915344;29;20024;-69
2022/02/18 13:28:19;;;;;;;0.93;0.80;;;-0.60;99.90;;;;;;4915572;29;20028;-69
2022/02/18 13:30:47;;;;;;;0.80;0.73;;;-0.60;99.90;;;;;;4915061;29;20103;-69
2022/02/18 13:33:16;;;;;;;2.60;1.08;;;-0.60;99.90;;;;;;4915493;29;20028;-72
2022/02/18 13:35:51;;;;;;;2.08;1.17;;;-0.60;99.90;;;;;;4913921;29;20534;-68
2022/02/18 13:38:22;;;;;;;3.17;1.17;;;-0.60;99.90;;;;;;4913537;29;20504;-73
2022/02/18 13:41:09;;;;;;;6.32;2.80;;;-0.60;99.90;;;;;;4915236;29;20036;-71
2022/02/18 13:43:56;;;;;;;15.05;5.63;;;-0.60;99.90;;;;;;4915421;29;20451;-71
2022/02/18 13:46:27;;;;;;;4.75;2.55;;;-0.60;99.90;;;;;;4915460;29;20040;-70
2022/02/18 13:48:57;;;;;;;3.22;2.20;;;-0.60;99.90;;;;;;4915632;29;20024;-69
2022/02/18 13:51:27;;;;;;;1.02;0.90;;;-0.50;99.90;;;;;;4915795;29;20052;-70
2022/02/18 13:53:53;;;;;;;1.20;1.10;;;-0.40;99.90;;;;;;4915155;29;20036;-69
2022/02/18 13:56:24;;;;;;;0.95;0.75;;;-0.60;99.90;;;;;;4915275;29;20024;-69